Time;durP1;ratioP1;P1;durP2;ratioP2;P2;SDS_P1;SDS_P2;PMS_P1;PMS_P2;Temp;Humidity;BMP_temperature;BMP_pressure;BME280_temperature;BME280_humidity;BME280_pressure;Samples;Min_cycle;Max_cycle;Signal;HPM_P1;HPM_P2
2021/10/06 00:00:35;;;;;;;0.77;0.38;;;;;;;6.18;100.00;92979.94;2098707;28;20031;-85
2021/10/06 00:01:36;;;;;;;3.25;0.55;;;;;;;6.20;100.00;92989.03;2103338;28;20024;-84
2021/10/06 00:02:38;;;;;;;0.88;0.50;;;;;;;6.03;100.00;92985.38;2115659;28;20062;-84
2021/10/06 00:03:40;;;;;;;3.95;0.50;;;;;;;6.05;100.00;92985.72;2115858;27;20084;-86
2021/10/06 00:04:41;;;;;;;4.80;0.63;;;;;;;6.04;100.00;92986.13;2115984;27;20057;-87
2021/10/06 00:05:41;;;;;;;0.90;0.40;;;;;;;6.01;100.00;92992.19;2132678;27;20027;-87
2021/10/06 00:06:43;;;;;;;1.80;0.40;;;;;;;5.99;100.00;92995.25;2120894;27;20073;-83
2021/10/06 00:07:44;;;;;;;1.20;0.30;;;;;;;5.93;100.00;92991.50;2107117;28;20032;-86
2021/10/06 00:08:45;;;;;;;0.30;0.30;;;;;;;5.96;100.00;92989.97;2115536;28;20115;-86
2021/10/06 00:09:46;;;;;;;0.98;0.47;;;;;;;6.11;100.00;92993.28;2115672;27;20024;-85
2021/10/06 00:10:48;;;;;;;0.73;0.40;;;;;;;6.15;100.00;92988.72;2115674;28;20023;-84
2021/10/06 00:11:49;;;;;;;3.92;0.57;;;;;;;6.09;100.00;92977.75;2115517;28;20026;-86
2021/10/06 00:12:50;;;;;;;1.83;0.38;;;;;;;6.03;100.00;92989.91;2115319;28;20027;-84
2021/10/06 00:13:51;;;;;;;3.88;0.40;;;;;;;6.03;100.00;92995.22;2113617;28;20513;-88
2021/10/06 00:14:52;;;;;;;0.32;0.32;;;;;;;6.19;100.00;92984.88;2115486;28;20023;-86
2021/10/06 00:15:53;;;;;;;5.10;0.32;;;;;;;6.23;100.00;92992.81;2107074;28;20038;-85
2021/10/06 00:16:54;;;;;;;1.25;0.45;;;;;;;6.22;100.00;92986.00;2113988;28;20061;-84
2021/10/06 00:17:55;;;;;;;0.43;0.40;;;;;;;6.11;100.00;92987.97;2124044;27;20027;-86
2021/10/06 00:18:56;;;;;;;1.70;0.38;;;;;;;6.08;100.00;92986.84;2131370;27;20025;-85
2021/10/06 00:19:57;;;;;;;1.35;0.32;;;;;;;6.01;100.00;92986.88;2123989;27;20019;-88
2021/10/06 00:20:58;;;;;;;0.68;0.30;;;;;;;6.13;100.00;92988.34;2107219;28;20484;-85
2021/10/06 00:21:59;;;;;;;1.08;0.50;;;;;;;6.05;100.00;92988.38;2124090;27;20023;-84
2021/10/06 00:23:00;;;;;;;0.90;0.43;;;;;;;6.14;100.00;92985.28;2132505;27;20029;-86
2021/10/06 00:24:00;;;;;;;3.65;0.80;;;;;;;6.03;100.00;92984.63;2123985;27;20023;-86
2021/10/06 00:25:02;;;;;;;1.67;0.40;;;;;;;5.94;100.00;92998.31;2115326;28;20027;-84
2021/10/06 00:26:04;;;;;;;2.17;0.43;;;;;;;5.97;100.00;92996.75;2099450;28;20021;-86
2021/10/06 00:27:05;;;;;;;2.63;0.40;;;;;;;5.90;100.00;92994.91;2107490;27;20081;-85
2021/10/06 00:28:06;;;;;;;0.47;0.30;;;;;;;5.79;100.00;92999.50;2106854;28;20465;-86
2021/10/06 00:29:08;;;;;;;8.57;1.30;;;;;;;5.79;100.00;92997.63;2106871;28;20107;-87
2021/10/06 00:30:09;;;;;;;9.80;0.50;;;;;;;5.78;100.00;92998.00;2107127;28;20069;-84
2021/10/06 00:31:10;;;;;;;1.33;0.40;;;;;;;5.79;100.00;92999.50;2107309;27;20468;-84
2021/10/06 00:32:11;;;;;;;0.82;0.30;;;;;;;5.77;100.00;93001.78;2115432;28;20030;-85
2021/10/06 00:33:12;;;;;;;1.42;0.30;;;;;;;5.76;100.00;92995.00;2115368;28;20020;-86
2021/10/06 00:34:15;;;;;;;1.23;0.30;;;;;;;5.64;100.00;92990.13;2115424;28;20069;-85
2021/10/06 00:35:16;;;;;;;1.90;0.40;;;;;;;5.67;100.00;92992.00;2115717;28;20031;-87
2021/10/06 00:36:17;;;;;;;0.68;0.43;;;;;;;5.73;100.00;92985.16;2106836;28;20024;-85
2021/10/06 00:37:18;;;;;;;4.57;0.85;;;;;;;5.64;100.00;92995.44;2098654;28;20082;-86
2021/10/06 00:38:21;;;;;;;1.35;1.25;;;;;;;5.52;100.00;92986.75;2098418;28;20093;-84
2021/10/06 00:39:22;;;;;;;0.30;0.22;;;;;;;5.62;100.00;92995.03;2099239;28;20400;-86
2021/10/06 00:40:23;;;;;;;1.15;0.40;;;;;;;5.57;100.00;92996.19;2115397;28;20030;-86
2021/10/06 00:41:24;;;;;;;0.65;0.40;;;;;;;5.52;100.00;92992.06;2115320;28;20022;-85
2021/10/06 00:42:25;;;;;;;2.10;0.40;;;;;;;5.47;100.00;92992.47;2104671;28;20027;-84
2021/10/06 00:43:26;;;;;;;0.77;0.32;;;;;;;5.43;100.00;92993.63;2107023;28;20023;-84
2021/10/06 00:44:33;;;;;;;0.82;0.30;;;;;;;5.45;100.00;92991.34;2106953;28;20016;-83
2021/10/06 00:45:34;;;;;;;3.80;0.50;;;;;;;5.34;100.00;92996.69;2116828;27;20083;-85
2021/10/06 00:46:35;;;;;;;2.65;0.40;;;;;;;5.39;100.00;92993.63;2123849;27;20508;-86
2021/10/06 00:47:36;;;;;;;2.20;0.38;;;;;;;5.36;100.00;92999.72;2122590;27;20027;-86
2021/10/06 00:48:37;;;;;;;1.00;0.40;;;;;;;5.36;100.00;92997.06;2115288;28;20016;-85
2021/10/06 00:49:39;;;;;;;3.85;0.40;;;;;;;5.37;100.00;93008.44;2115389;28;20047;-85
2021/10/06 00:50:41;;;;;;;1.27;0.40;;;;;;;5.49;100.00;93006.09;2124092;27;20051;-83
2021/10/06 00:51:43;;;;;;;1.92;0.30;;;;;;;5.50;100.00;92998.91;2123928;27;20114;-85
2021/10/06 00:52:45;;;;;;;0.80;0.32;;;;;;;5.43;100.00;93004.22;2123930;27;20103;-84
2021/10/06 00:53:47;;;;;;;2.72;0.30;;;;;;;5.40;100.00;93013.72;2124172;27;20023;-84
2021/10/06 00:54:49;;;;;;;1.65;0.50;;;;;;;5.19;100.00;93005.84;2124252;27;20071;-85
2021/10/06 00:55:50;;;;;;;2.80;0.40;;;;;;;5.22;100.00;93005.06;2115128;28;20070;-86
2021/10/06 00:56:51;;;;;;;0.52;0.35;;;;;;;5.29;100.00;93003.13;2098470;28;20032;-88
2021/10/06 00:57:52;;;;;;;2.83;0.38;;;;;;;5.34;100.00;93007.28;2106745;28;20020;-84
2021/10/06 00:58:53;;;;;;;5.13;0.50;;;;;;;5.27;100.00;93009.97;2106880;28;20023;-84
2021/10/06 00:59:55;;;;;;;2.85;0.68;;;;;;;5.41;100.00;93011.81;2115319;28;20015;-85
2021/10/06 01:00:56;;;;;;;1.45;0.38;;;;;;;5.38;100.00;93010.69;2115007;28;20019;-84
2021/10/06 01:01:58;;;;;;;1.63;0.50;;;;;;;5.23;100.00;93020.59;2106627;28;20048;-86
2021/10/06 01:02:59;;;;;;;0.85;0.40;;;;;;;5.31;100.00;93021.31;2115409;27;20404;-85
2021/10/06 01:04:02;;;;;;;2.15;0.52;;;;;;;5.20;100.00;93015.28;2115037;28;20031;-85
2021/10/06 01:05:06;;;;;;;2.10;0.60;;;;;;;5.15;100.00;93011.16;2115362;27;20107;-86
2021/10/06 01:06:08;;;;;;;1.48;0.57;;;;;;;5.15;100.00;93013.03;2107258;28;20026;-85
2021/10/06 01:07:10;;;;;;;2.70;0.32;;;;;;;5.05;100.00;93019.88;2106775;28;20100;-86
2021/10/06 01:08:11;;;;;;;0.93;0.50;;;;;;;5.06;100.00;93018.75;2112493;28;20081;-85
2021/10/06 01:09:11;;;;;;;2.90;0.50;;;;;;;5.11;100.00;93021.00;2117787;28;20023;-83
2021/10/06 01:10:13;;;;;;;2.28;0.40;;;;;;;4.86;100.00;93022.94;2118202;28;20061;-85
2021/10/06 01:11:15;;;;;;;2.03;0.60;;;;;;;5.10;100.00;93024.03;2107257;28;20020;-85
2021/10/06 01:12:19;;;;;;;1.05;0.45;;;;;;;5.00;100.00;93020.25;2106706;28;20794;-85
2021/10/06 01:13:20;;;;;;;4.68;0.50;;;;;;;4.95;100.00;93029.34;2107438;28;20134;-87
2021/10/06 01:14:23;;;;;;;5.88;0.50;;;;;;;5.10;100.00;93022.16;2123545;27;20018;-85
2021/10/06 01:15:24;;;;;;;1.25;0.60;;;;;;;5.04;100.00;93029.69;2123578;27;20097;-86
2021/10/06 01:16:25;;;;;;;0.60;0.40;;;;;;;5.01;100.00;93024.44;2106739;28;20027;-86
2021/10/06 01:17:26;;;;;;;5.15;0.77;;;;;;;5.07;100.00;93027.44;2115121;28;20023;-85
2021/10/06 01:18:27;;;;;;;1.02;0.50;;;;;;;4.95;100.00;93033.88;2123546;27;20060;-84
2021/10/06 01:19:29;;;;;;;1.50;0.40;;;;;;;5.09;100.00;93030.44;2115136;28;20127;-86
2021/10/06 01:20:30;;;;;;;1.70;0.45;;;;;;;5.16;100.00;93025.16;2117018;28;20416;-83
2021/10/06 01:21:31;;;;;;;1.52;0.45;;;;;;;5.05;100.00;93020.66;2120322;27;20028;-82
2021/10/06 01:22:33;;;;;;;0.73;0.35;;;;;;;4.99;100.00;93027.44;2118615;28;20031;-84
2021/10/06 01:23:34;;;;;;;0.88;0.40;;;;;;;4.98;100.00;93028.59;2106781;28;20523;-83
2021/10/06 01:24:35;;;;;;;0.30;0.30;;;;;;;4.89;100.00;93016.88;2106539;28;20027;-84
2021/10/06 01:25:35;;;;;;;3.10;0.40;;;;;;;4.88;100.00;93016.13;2106430;28;20031;-86
2021/10/06 01:26:36;;;;;;;3.60;0.40;;;;;;;4.95;100.00;93010.81;2114263;27;20032;-86
2021/10/06 01:27:38;;;;;;;2.15;0.45;;;;;;;4.86;100.00;93023.69;2123419;27;20018;-86
2021/10/06 01:28:39;;;;;;;1.67;0.50;;;;;;;4.85;100.00;93016.91;2123712;27;20098;-85
2021/10/06 01:29:40;;;;;;;14.05;1.05;;;;;;;5.01;100.00;93024.44;2123501;27;20034;-85
2021/10/06 01:30:41;;;;;;;1.45;0.40;;;;;;;5.21;100.00;93020.19;2132078;27;20018;-84
2021/10/06 01:31:44;;;;;;;3.95;0.45;;;;;;;4.99;100.00;93026.69;2123434;27;20019;-86
2021/10/06 01:32:46;;;;;;;2.40;0.47;;;;;;;5.00;100.00;93013.09;2115496;27;20088;-85
2021/10/06 01:33:47;;;;;;;0.63;0.63;;;;;;;4.96;100.00;93022.16;2123513;27;20639;-86
2021/10/06 01:34:59;;;;;;;2.00;0.50;;;;;;;4.82;100.00;93022.19;2114997;28;20019;-84
2021/10/06 01:35:59;;;;;;;1.35;0.43;;;;;;;4.90;100.00;93023.69;2125126;27;20125;-84
2021/10/06 01:37:00;;;;;;;1.33;0.50;;;;;;;4.90;100.00;93019.16;2131798;27;20035;-87
2021/10/06 01:38:02;;;;;;;2.13;0.30;;;;;;;4.87;100.00;93024.44;2114822;28;20023;-85
2021/10/06 01:39:07;;;;;;;0.68;0.40;;;;;;;4.86;100.00;93028.25;2115046;27;20049;-84
2021/10/06 01:40:12;;;;;;;1.02;0.50;;;;;;;4.84;100.00;93019.94;2115466;27;20031;-86
2021/10/06 01:41:13;;;;;;;2.60;0.50;;;;;;;4.95;100.00;93023.31;2123368;27;20015;-83
2021/10/06 01:42:14;;;;;;;1.33;0.68;;;;;;;5.04;100.00;93024.41;2114677;28;20262;-85
2021/10/06 01:43:15;;;;;;;1.05;0.50;;;;;;;4.94;100.00;93027.09;2114795;28;20023;-86
2021/10/06 01:44:18;;;;;;;6.38;0.55;;;;;;;5.05;100.00;93031.25;2123365;27;20095;-83
2021/10/06 01:45:24;;;;;;;4.47;0.75;;;;;;;5.10;100.00;93016.09;2122898;27;20023;-87
2021/10/06 01:46:26;;;;;;;1.00;0.40;;;;;;;5.12;100.00;93019.84;2123546;27;20117;-86
2021/10/06 01:47:27;;;;;;;3.83;0.77;;;;;;;5.11;100.00;93017.59;2123089;27;20127;-85
2021/10/06 01:48:29;;;;;;;6.07;0.70;;;;;;;5.09;100.00;93017.22;2131658;27;20037;-85
2021/10/06 01:49:30;;;;;;;3.10;0.45;;;;;;;5.05;100.00;93020.66;2114863;27;20439;-86
2021/10/06 01:50:32;;;;;;;0.63;0.45;;;;;;;5.17;100.00;93016.81;2114864;28;20047;-85
2021/10/06 01:51:33;;;;;;;4.53;0.50;;;;;;;5.28;100.00;93022.09;2115046;27;20035;-83
2021/10/06 01:52:34;;;;;;;2.08;0.60;;;;;;;5.23;100.00;93035.72;2114790;27;20082;-86
2021/10/06 01:53:36;;;;;;;1.30;0.57;;;;;;;5.09;100.00;93038.41;2123396;27;20118;-85
2021/10/06 01:54:37;;;;;;;3.72;0.55;;;;;;;5.07;100.00;93027.44;2115072;28;20532;-85
2021/10/06 01:55:39;;;;;;;1.02;0.45;;;;;;;5.12;100.00;93027.06;2106057;28;20028;-86
2021/10/06 01:56:40;;;;;;;3.33;0.73;;;;;;;5.10;100.00;93026.69;2106107;28;20020;-84
2021/10/06 01:57:41;;;;;;;1.08;0.52;;;;;;;5.01;100.00;93030.50;2098012;28;20043;-87
2021/10/06 01:58:47;;;;;;;3.58;0.50;;;;;;;5.01;100.00;93024.44;2105961;28;20023;-86
2021/10/06 01:59:49;;;;;;;1.20;0.52;;;;;;;4.93;100.00;93029.00;2115382;27;20020;-84
2021/10/06 02:00:50;;;;;;;3.53;1.00;;;;;;;5.01;100.00;93027.84;2106351;28;20546;-84
2021/10/06 02:01:51;;;;;;;2.72;0.50;;;;;;;4.99;100.00;93030.09;2106373;28;20016;-85
2021/10/06 02:02:52;;;;;;;1.00;0.43;;;;;;;5.04;100.00;93023.66;2123117;27;20106;-84
2021/10/06 02:03:53;;;;;;;1.90;0.50;;;;;;;5.00;100.00;93025.56;2123834;27;20019;-87
2021/10/06 02:04:54;;;;;;;1.77;0.52;;;;;;;4.99;100.00;93022.16;2123809;27;20189;-85
2021/10/06 02:05:55;;;;;;;2.65;0.40;;;;;;;5.01;100.00;93019.91;2123029;27;20422;-86
2021/10/06 02:06:58;;;;;;;1.80;0.70;;;;;;;5.03;100.00;93022.91;2123256;27;20035;-84
2021/10/06 02:07:59;;;;;;;1.77;0.50;;;;;;;5.01;100.00;93025.19;2114327;28;20043;-84
2021/10/06 02:09:00;;;;;;;4.20;0.73;;;;;;;4.98;100.00;93023.28;2114665;28;20047;-86
2021/10/06 02:10:01;;;;;;;1.35;0.50;;;;;;;4.98;100.00;93033.88;2130755;27;20087;-83
2021/10/06 02:11:02;;;;;;;2.08;0.57;;;;;;;5.03;100.00;93025.56;2124566;27;20023;-82
2021/10/06 02:12:04;;;;;;;1.85;0.50;;;;;;;5.05;100.00;93025.19;2123064;28;20027;-84
2021/10/06 02:13:05;;;;;;;1.55;0.70;;;;;;;5.04;100.00;93027.06;2106471;28;20031;-86
2021/10/06 02:14:06;;;;;;;1.33;0.60;;;;;;;5.00;100.00;93022.91;2097910;28;20024;-84
2021/10/06 02:15:08;;;;;;;1.50;0.50;;;;;;;5.04;100.00;93018.34;2114315;28;20027;-83
2021/10/06 02:16:08;;;;;;;3.97;0.55;;;;;;;5.02;100.00;93021.41;2106535;28;20054;-86
2021/10/06 02:17:09;;;;;;;2.47;0.60;;;;;;;5.07;100.00;93017.59;2106362;28;20020;-86
2021/10/06 02:18:10;;;;;;;1.98;0.73;;;;;;;5.06;100.00;93026.69;2106206;28;20032;-85
2021/10/06 02:19:11;;;;;;;0.75;0.50;;;;;;;5.05;100.00;93020.66;2106350;28;20115;-86
2021/10/06 02:20:12;;;;;;;1.75;0.60;;;;;;;5.10;100.00;93021.38;2114633;28;20043;-84
2021/10/06 02:21:13;;;;;;;1.52;0.40;;;;;;;5.04;100.00;93024.41;2114673;28;20425;-84
2021/10/06 02:22:14;;;;;;;2.22;0.50;;;;;;;5.05;100.00;93027.84;2115553;28;20020;-84
2021/10/06 02:23:15;;;;;;;0.60;0.40;;;;;;;5.09;100.00;93033.09;2121929;28;20019;-87
2021/10/06 02:24:16;;;;;;;2.17;0.50;;;;;;;5.00;100.00;93030.84;2114675;28;20091;-84
2021/10/06 02:25:17;;;;;;;1.35;0.60;;;;;;;4.98;100.00;93027.84;2114651;28;20085;-85
2021/10/06 02:26:18;;;;;;;3.25;0.70;;;;;;;4.97;100.00;93026.34;2112540;28;20445;-86
2021/10/06 02:27:19;;;;;;;1.65;0.45;;;;;;;4.93;100.00;93029.00;2106224;28;20024;-84
2021/10/06 02:28:20;;;;;;;1.27;0.60;;;;;;;4.87;100.00;93029.75;2114524;28;20061;-85
2021/10/06 02:29:21;;;;;;;2.05;0.40;;;;;;;4.96;100.00;93030.09;2112384;28;20032;-86
2021/10/06 02:30:22;;;;;;;3.25;0.77;;;;;;;5.00;100.00;93036.16;2114672;28;20024;-85
2021/10/06 02:31:23;;;;;;;0.80;0.55;;;;;;;4.99;100.00;93030.09;2106338;28;20020;-85
2021/10/06 02:32:24;;;;;;;1.35;0.45;;;;;;;5.00;100.00;93030.84;2108433;27;20024;-87
2021/10/06 02:33:25;;;;;;;4.32;0.70;;;;;;;5.11;100.00;93036.13;2114543;28;20077;-84
2021/10/06 02:34:26;;;;;;;0.80;0.40;;;;;;;4.99;100.00;93032.00;2114733;28;20023;-86
2021/10/06 02:35:27;;;;;;;1.35;0.40;;;;;;;5.05;100.00;93030.47;2114589;28;20042;-84
2021/10/06 02:36:28;;;;;;;6.05;0.50;;;;;;;4.97;100.00;93032.38;2114967;28;20022;-83
2021/10/06 02:37:31;;;;;;;0.93;0.45;;;;;;;5.00;100.00;93036.16;2123189;28;20022;-84
2021/10/06 02:38:32;;;;;;;0.65;0.43;;;;;;;5.09;100.00;93030.44;2123040;28;20106;-84
2021/10/06 02:39:33;;;;;;;2.45;0.70;;;;;;;4.98;100.00;93033.88;2106188;28;20020;-84
2021/10/06 02:40:34;;;;;;;1.40;0.60;;;;;;;4.90;100.00;93021.03;2097899;28;20029;-85
2021/10/06 02:41:35;;;;;;;2.60;0.60;;;;;;;4.89;100.00;93027.47;2106096;28;20036;-86
2021/10/06 02:42:37;;;;;;;0.93;0.43;;;;;;;4.87;100.00;93025.19;2106169;28;20110;-85
2021/10/06 02:43:38;;;;;;;7.43;0.95;;;;;;;4.97;100.00;93026.34;2098110;28;20020;-85
2021/10/06 02:44:38;;;;;;;8.38;0.90;;;;;;;4.96;100.00;93022.16;2106181;28;20027;-84
2021/10/06 02:45:39;;;;;;;4.05;0.88;;;;;;;4.92;100.00;93022.19;2114518;28;20057;-83
2021/10/06 02:46:40;;;;;;;2.38;0.50;;;;;;;4.81;100.00;93024.09;2114414;28;20110;-84
2021/10/06 02:47:42;;;;;;;0.57;0.45;;;;;;;4.98;100.00;93030.50;2106101;28;20016;-84
2021/10/06 02:48:43;;;;;;;2.92;0.68;;;;;;;4.96;100.00;93028.22;2122901;28;20016;-85
2021/10/06 02:49:43;;;;;;;1.38;0.50;;;;;;;4.99;100.00;93034.66;2123608;27;20087;-82
2021/10/06 02:50:44;;;;;;;3.00;0.60;;;;;;;4.92;100.00;93027.47;2123018;28;20100;-85
2021/10/06 02:51:45;;;;;;;1.83;0.43;;;;;;;4.91;100.00;93025.19;2106234;28;20023;-84
2021/10/06 02:52:46;;;;;;;1.25;0.47;;;;;;;4.99;100.00;93027.44;2106198;28;20052;-85
2021/10/06 02:53:47;;;;;;;4.25;0.60;;;;;;;5.23;100.00;93020.59;2128667;27;20101;-86
2021/10/06 02:54:48;;;;;;;1.92;0.47;;;;;;;5.03;100.00;93030.84;2132174;27;20464;-86
2021/10/06 02:55:49;;;;;;;0.65;0.50;;;;;;;5.02;100.00;93036.53;2120428;28;20546;-85
2021/10/06 02:56:50;;;;;;;3.50;0.57;;;;;;;4.90;100.00;93029.00;2106292;28;20035;-83
2021/10/06 02:57:51;;;;;;;2.92;0.52;;;;;;;4.88;100.00;93028.63;2112227;28;20019;-83
2021/10/06 02:58:52;;;;;;;2.08;0.50;;;;;;;4.83;100.00;93032.41;2122894;28;20410;-85
2021/10/06 02:59:53;;;;;;;4.82;0.90;;;;;;;4.83;100.00;93034.28;2112336;28;20500;-84
2021/10/06 03:00:54;;;;;;;3.58;0.55;;;;;;;4.88;100.00;93028.63;2114481;28;20020;-85
2021/10/06 03:01:55;;;;;;;2.55;0.80;;;;;;;4.87;100.00;93029.75;2105856;28;20438;-84
2021/10/06 03:02:56;;;;;;;15.50;1.33;;;;;;;4.82;100.00;93036.19;2097708;28;20025;-86
2021/10/06 03:03:57;;;;;;;4.32;0.50;;;;;;;4.85;100.00;93032.78;2104470;28;20069;-85
2021/10/06 03:04:59;;;;;;;5.63;0.80;;;;;;;4.87;100.00;93035.03;2106420;28;20066;-85
2021/10/06 03:06:00;;;;;;;3.40;0.70;;;;;;;4.98;100.00;93033.13;2116579;28;20468;-84
2021/10/06 03:07:01;;;;;;;4.40;0.77;;;;;;;5.00;100.00;93036.16;2122915;28;20031;-82
2021/10/06 03:08:03;;;;;;;5.55;0.73;;;;;;;4.94;100.00;93029.75;2111627;28;20050;-82
2021/10/06 03:09:04;;;;;;;3.53;1.08;;;;;;;4.90;100.00;93032.38;2103353;28;20028;-82
2021/10/06 03:10:06;;;;;;;1.85;0.70;;;;;;;4.87;100.00;93032.38;2117258;28;20098;-84
2021/10/06 03:11:07;;;;;;;1.05;0.65;;;;;;;4.89;100.00;93041.47;2124138;27;20023;-84
2021/10/06 03:12:08;;;;;;;3.22;0.82;;;;;;;4.95;100.00;93042.59;2124538;27;20023;-84
2021/10/06 03:13:09;;;;;;;3.63;1.10;;;;;;;4.95;100.00;93049.78;2124332;27;20508;-82
2021/10/06 03:14:10;;;;;;;2.53;0.70;;;;;;;4.92;100.00;93046.03;2116060;28;20023;-83
2021/10/06 03:15:12;;;;;;;4.78;0.70;;;;;;;5.00;100.00;93036.16;2132998;27;20495;-86
2021/10/06 03:16:13;;;;;;;4.05;0.88;;;;;;;5.03;100.00;93038.03;2133087;27;20085;-84
2021/10/06 03:17:13;;;;;;;0.95;0.70;;;;;;;4.94;100.00;93051.69;2133742;27;20062;-84
2021/10/06 03:18:14;;;;;;;1.10;0.52;;;;;;;4.91;100.00;93044.50;2132930;27;20075;-87
2021/10/06 03:19:15;;;;;;;1.60;0.68;;;;;;;4.95;100.00;93044.50;2124309;27;20027;-83
2021/10/06 03:20:16;;;;;;;2.10;0.57;;;;;;;4.96;100.00;93041.47;2123316;27;20060;-83
2021/10/06 03:21:17;;;;;;;3.70;0.70;;;;;;;4.92;100.00;93046.03;2108895;27;20519;-83
2021/10/06 03:22:18;;;;;;;3.83;0.73;;;;;;;5.03;100.00;93051.28;2114576;28;20023;-85
2021/10/06 03:23:20;;;;;;;2.20;0.70;;;;;;;4.99;100.00;93051.28;2120027;27;20094;-86
2021/10/06 03:24:21;;;;;;;1.60;0.88;;;;;;;4.93;100.00;93050.19;2099449;28;20520;-85
2021/10/06 03:25:22;;;;;;;5.40;0.68;;;;;;;5.01;100.00;93059.63;2107466;28;20034;-83
2021/10/06 03:26:23;;;;;;;2.30;0.65;;;;;;;4.99;100.00;93048.63;2119338;27;20027;-82
2021/10/06 03:27:24;;;;;;;2.22;0.60;;;;;;;4.93;100.00;93055.47;2107454;28;20028;-84
2021/10/06 03:28:25;;;;;;;1.98;0.60;;;;;;;4.96;100.00;93052.06;2109812;28;20031;-87
2021/10/06 03:29:28;;;;;;;4.28;0.95;;;;;;;5.00;100.00;93057.34;2113242;28;20664;-87
2021/10/06 03:30:29;;;;;;;5.22;0.60;;;;;;;4.94;100.00;93059.63;2107559;28;20389;-87
2021/10/06 03:31:29;;;;;;;3.63;0.90;;;;;;;4.86;100.00;93060.78;2098918;28;20099;-87
2021/10/06 03:32:30;;;;;;;0.82;0.60;;;;;;;4.89;100.00;93064.56;2105389;28;20026;-86
2021/10/06 03:33:31;;;;;;;0.95;0.55;;;;;;;4.94;100.00;93064.94;2107486;28;20020;-86
2021/10/06 03:34:32;;;;;;;3.83;0.70;;;;;;;4.97;100.00;93058.13;2124528;27;20081;-82
2021/10/06 03:35:33;;;;;;;6.13;0.90;;;;;;;4.88;100.00;93063.81;2120542;27;20055;-86
2021/10/06 03:36:34;;;;;;;3.10;0.50;;;;;;;4.84;100.00;93060.41;2111132;28;20465;-86
2021/10/06 03:37:37;;;;;;;1.95;0.70;;;;;;;4.90;100.00;93063.41;2115777;27;20024;-82
2021/10/06 03:38:37;;;;;;;4.57;0.93;;;;;;;4.87;100.00;93059.63;2115883;27;20106;-84
2021/10/06 03:39:38;;;;;;;2.03;0.57;;;;;;;4.84;100.00;93065.69;2115749;28;20070;-85
2021/10/06 03:40:39;;;;;;;10.05;1.05;;;;;;;4.83;100.00;93064.19;2107527;28;20020;-82
2021/10/06 03:41:40;;;;;;;4.50;0.93;;;;;;;4.92;100.00;93066.47;2107436;28;20020;-84
2021/10/06 03:42:41;;;;;;;6.40;0.90;;;;;;;4.80;100.00;93064.94;2107475;28;20444;-83
2021/10/06 03:43:42;;;;;;;0.65;0.60;;;;;;;4.85;100.00;93064.56;2115892;28;20103;-83
2021/10/06 03:44:43;;;;;;;2.40;0.70;;;;;;;4.86;100.00;93070.59;2115948;28;20023;-85
2021/10/06 03:45:44;;;;;;;2.33;0.60;;;;;;;4.78;100.00;93078.56;2107165;28;20020;-83
2021/10/06 03:46:45;;;;;;;3.83;0.65;;;;;;;4.76;100.00;93074.78;2103410;28;20024;-84
2021/10/06 03:47:46;;;;;;;0.93;0.50;;;;;;;4.79;100.00;93076.69;2115556;28;20024;-85
2021/10/06 03:48:47;;;;;;;1.55;0.50;;;;;;;4.70;100.00;93071.00;2115880;27;20023;-88
2021/10/06 03:49:48;;;;;;;1.52;0.60;;;;;;;4.80;100.00;93078.19;2130007;27;20021;-84
2021/10/06 03:50:49;;;;;;;0.90;0.60;;;;;;;4.70;100.00;93082.34;2132858;27;20416;-83
2021/10/06 03:51:50;;;;;;;3.05;0.68;;;;;;;4.67;100.00;93083.09;2107225;28;20016;-87
2021/10/06 03:52:50;;;;;;;1.60;0.65;;;;;;;4.76;100.00;93083.47;2111275;28;20026;-85
2021/10/06 03:53:51;;;;;;;1.73;0.70;;;;;;;4.70;100.00;93081.59;2115773;28;20404;-82
2021/10/06 03:54:52;;;;;;;2.38;0.80;;;;;;;4.66;100.00;93081.59;2107299;28;20026;-88
2021/10/06 03:55:53;;;;;;;3.33;0.80;;;;;;;4.60;100.00;93088.38;2101761;28;20075;-84
2021/10/06 03:56:55;;;;;;;1.48;0.75;;;;;;;4.53;100.00;93091.81;2113564;28;20048;-84
2021/10/06 03:57:56;;;;;;;2.13;0.70;;;;;;;4.34;100.00;93086.09;2107288;28;20353;-84
2021/10/06 03:58:57;;;;;;;6.85;0.73;;;;;;;4.35;100.00;93075.16;2107348;28;20012;-84
2021/10/06 03:59:57;;;;;;;0.90;0.63;;;;;;;4.48;100.00;93084.25;2114251;28;20456;-85
2021/10/06 04:00:58;;;;;;;3.15;0.75;;;;;;;4.57;100.00;93086.53;2114272;28;20026;-87
2021/10/06 04:01:59;;;;;;;2.75;0.70;;;;;;;4.59;100.00;93086.13;2121307;27;20023;-84
2021/10/06 04:03:00;;;;;;;1.95;0.47;;;;;;;4.47;100.00;93084.59;2107172;28;20035;-83
2021/10/06 04:04:01;;;;;;;2.75;0.60;;;;;;;4.42;100.00;93083.09;2115563;28;20055;-84
2021/10/06 04:05:04;;;;;;;1.85;0.60;;;;;;;4.40;100.00;93090.66;2115464;28;20023;-87
2021/10/06 04:06:05;;;;;;;1.65;0.60;;;;;;;4.35;100.00;93088.38;2115593;27;20038;-85
2021/10/06 04:07:06;;;;;;;2.30;0.80;;;;;;;4.35;100.00;93098.22;2123844;27;20038;-84
2021/10/06 04:08:07;;;;;;;6.53;0.80;;;;;;;4.43;100.00;93097.06;2123956;27;20051;-85
2021/10/06 04:09:08;;;;;;;1.00;0.43;;;;;;;4.44;100.00;93102.00;2124186;27;20492;-83
2021/10/06 04:10:09;;;;;;;3.53;0.93;;;;;;;4.47;100.00;93098.59;2115586;28;20035;-85
2021/10/06 04:11:10;;;;;;;3.15;0.70;;;;;;;4.43;100.00;93103.13;2123904;27;20385;-85
2021/10/06 04:12:11;;;;;;;2.70;0.80;;;;;;;4.41;100.00;93105.41;2124591;27;20054;-84
2021/10/06 04:13:12;;;;;;;4.15;0.70;;;;;;;4.34;100.00;93105.38;2123813;27;20023;-86
2021/10/06 04:14:13;;;;;;;3.55;0.60;;;;;;;4.34;100.00;93109.91;2131650;27;20490;-83
2021/10/06 04:15:14;;;;;;;1.45;0.70;;;;;;;4.42;100.00;93114.09;2116230;27;20027;-85
2021/10/06 04:16:15;;;;;;;3.60;1.75;;;;;;;4.27;100.00;93114.06;2115470;28;20460;-85
2021/10/06 04:17:16;;;;;;;3.33;0.80;;;;;;;4.27;100.00;93114.06;2112474;28;20027;-81
2021/10/06 04:18:17;;;;;;;4.32;0.70;;;;;;;4.33;100.00;93111.06;2115479;27;20031;-82
2021/10/06 04:19:18;;;;;;;2.10;0.70;;;;;;;4.32;100.00;93110.31;2118840;27;20036;-81
2021/10/06 04:20:19;;;;;;;3.17;0.65;;;;;;;4.28;100.00;93102.34;2108393;28;20028;-82
2021/10/06 04:21:21;;;;;;;1.65;0.73;;;;;;;4.40;100.00;93103.13;2113101;28;20028;-84
2021/10/06 04:22:21;;;;;;;2.25;0.68;;;;;;;4.44;100.00;93107.31;2123783;27;20038;-84
2021/10/06 04:23:22;;;;;;;5.05;1.00;;;;;;;4.36;100.00;93097.09;2124108;27;20038;-86
2021/10/06 04:24:23;;;;;;;9.80;0.90;;;;;;;4.41;100.00;93102.00;2107061;28;20028;-83
2021/10/06 04:25:24;;;;;;;1.38;0.60;;;;;;;4.44;100.00;93099.34;2115312;27;20028;-87
2021/10/06 04:26:25;;;;;;;1.52;0.70;;;;;;;4.37;100.00;93101.22;2114366;28;20031;-84
2021/10/06 04:27:26;;;;;;;2.67;0.80;;;;;;;4.34;100.00;93101.97;2123907;27;20047;-83
2021/10/06 04:28:27;;;;;;;1.50;0.60;;;;;;;4.34;100.00;93102.72;2117930;27;20077;-88
2021/10/06 04:29:28;;;;;;;3.22;0.68;;;;;;;4.28;100.00;93102.34;2106938;28;20028;-83
2021/10/06 04:30:32;;;;;;;0.70;0.70;;;;;;;4.31;100.00;93100.84;2115577;27;20023;-82
2021/10/06 04:31:33;;;;;;;1.20;0.70;;;;;;;4.38;100.00;93108.78;2124122;27;20027;-86
2021/10/06 04:32:34;;;;;;;2.17;0.55;;;;;;;4.27;100.00;93105.38;2123826;27;20458;-86
2021/10/06 04:33:35;;;;;;;1.55;0.60;;;;;;;4.17;100.00;93111.38;2123997;27;20023;-82
2021/10/06 04:34:36;;;;;;;1.52;0.60;;;;;;;4.19;100.00;93107.25;2115341;28;20509;-85
2021/10/06 04:35:37;;;;;;;1.63;0.57;;;;;;;4.12;100.00;93109.88;2110852;28;20495;-84
2021/10/06 04:36:38;;;;;;;0.75;0.68;;;;;;;4.09;100.00;93109.88;2102840;28;20028;-86
2021/10/06 04:37:39;;;;;;;2.17;0.77;;;;;;;3.95;100.00;93114.00;2106849;28;20107;-86
2021/10/06 04:38:41;;;;;;;2.50;0.70;;;;;;;4.09;100.00;93112.53;2106892;28;20012;-86
2021/10/06 04:39:42;;;;;;;2.50;0.70;;;;;;;4.07;100.00;93120.06;2098521;28;20028;-87
2021/10/06 04:40:43;;;;;;;1.35;0.57;;;;;;;4.19;100.00;93117.06;2103302;27;20028;-83
2021/10/06 04:41:44;;;;;;;1.60;0.52;;;;;;;4.20;100.00;93114.03;2115401;28;20043;-85
2021/10/06 04:42:46;;;;;;;3.53;0.60;;;;;;;4.32;100.00;93109.53;2106769;28;20081;-85
2021/10/06 04:43:47;;;;;;;4.55;0.90;;;;;;;4.15;100.00;93119.72;2106894;28;20030;-84
2021/10/06 04:44:49;;;;;;;2.80;0.60;;;;;;;4.15;100.00;93116.31;2112658;27;20556;-83
2021/10/06 04:45:49;;;;;;;1.58;0.80;;;;;;;4.00;100.00;93116.28;2117967;27;20028;-87
2021/10/06 04:46:50;;;;;;;2.50;0.50;;;;;;;4.02;100.00;93110.59;2112776;28;20121;-84
2021/10/06 04:47:51;;;;;;;3.15;0.90;;;;;;;4.11;100.00;93121.59;2098433;28;20477;-82
2021/10/06 04:48:52;;;;;;;2.35;0.80;;;;;;;4.11;100.00;93112.91;2097288;28;20385;-84